Time;durP1;ratioP1;P1;durP2;ratioP2;P2;SDS_P1;SDS_P2;PMS_P1;PMS_P2;Temp;Humidity;BMP_temperature;BMP_pressure;BME280_temperature;BME280_humidity;BME280_pressure;Samples;Min_cycle;Max_cycle;Signal;HPM_P1;HPM_P2
2021/06/08 00:00:12;;;;;;;;;;;;;;;24.23;47.49;100119.14;1747341;82;20431;-77
2021/06/08 00:02:42;;;;;;;;;;;;;;;24.24;47.45;100124.06;1747346;82;20171;-77
2021/06/08 00:05:09;;;;;;;;;;;;;;;24.21;47.43;100124.05;1746211;82;20195;-78
2021/06/08 00:07:35;;;;;;;;;;;;;;;24.19;47.37;100119.91;1746342;82;20143;-78
2021/06/08 00:10:01;;;;;;;;;;;;;;;24.18;47.45;100116.34;1745082;82;20212;-78
2021/06/08 00:12:27;;;;;;;;;;;;;;;24.22;47.34;100117.49;1740172;81;20158;-77
2021/06/08 00:14:53;;;;;;;;;;;;;;;24.18;47.36;100117.71;1735253;81;20139;-77
2021/06/08 00:17:19;;;;;;;;;;;;;;;24.19;47.38;100119.91;1743114;82;20815;-77
2021/06/08 00:19:45;;;;;;;;;;;;;;;24.22;47.28;100116.13;1734869;82;20225;-77
2021/06/08 00:22:10;;;;;;;;;;;;;;;24.23;47.31;100113.66;1730483;81;20696;-77
2021/06/08 00:24:36;;;;;;;;;;;;;;;24.19;47.38;100112.52;1739150;81;20246;-76
2021/06/08 00:27:03;;;;;;;;;;;;;;;24.17;47.50;100117.98;1756453;81;20165;-76
2021/06/08 00:29:29;;;;;;;;;;;;;;;24.19;47.36;100109.78;1746122;81;20174;-77
2021/06/08 00:31:55;;;;;;;;;;;;;;;24.20;47.36;100116.91;1746874;82;20181;-77
2021/06/08 00:34:21;;;;;;;;;;;;;;;24.10;47.51;100106.39;1746163;82;20185;-76
2021/06/08 00:36:47;;;;;;;;;;;;;;;24.13;47.47;100107.26;1734640;82;20147;-77
2021/06/08 00:39:12;;;;;;;;;;;;;;;24.12;47.46;100109.17;1730239;81;20237;-76
2021/06/08 00:41:42;;;;;;;;;;;;;;;24.11;47.42;100114.33;1730471;83;20233;-76
2021/06/08 00:44:12;;;;;;;;;;;;;;;24.07;47.44;100111.00;1730362;83;20433;-77
2021/06/08 00:46:37;;;;;;;;;;;;;;;24.04;47.45;100110.98;1745978;82;20175;-78
2021/06/08 00:49:03;;;;;;;;;;;;;;;24.20;47.18;100108.69;1746261;82;20170;-78
2021/06/08 00:51:29;;;;;;;;;;;;;;;24.08;47.48;100112.13;1746285;82;20182;-78
2021/06/08 00:53:55;;;;;;;;;;;;;;;24.07;47.49;100106.89;1741398;81;20182;-78
2021/06/08 00:56:21;;;;;;;;;;;;;;;24.07;47.48;100104.16;1730853;81;20245;-78
2021/06/08 00:58:47;;;;;;;;;;;;;;;24.08;47.38;100108.02;1747297;82;20149;-78
2021/06/08 01:01:13;;;;;;;;;;;;;;;24.12;47.27;100113.28;1747182;82;20178;-78
2021/06/08 01:03:39;;;;;;;;;;;;;;;24.09;47.34;100114.32;1730744;82;20248;-78
2021/06/08 01:06:05;;;;;;;;;;;;;;;24.23;47.05;100116.40;1731156;83;20147;-78
2021/06/08 01:08:30;;;;;;;;;;;;;;;24.27;46.87;100110.70;1753294;81;20252;-78
2021/06/08 01:10:56;;;;;;;;;;;;;;;24.02;47.31;100122.16;1761021;81;20140;-78
2021/06/08 01:13:26;;;;;;;;;;;;;;;23.95;47.47;100115.25;1749203;81;20185;-78
2021/06/08 01:15:50;;;;;;;;;;;;;;;23.90;47.52;100116.56;1743514;81;20186;-78
2021/06/08 01:18:16;;;;;;;;;;;;;;;23.94;47.49;100121.81;1746399;82;20229;-78
2021/06/08 01:20:42;;;;;;;;;;;;;;;23.86;47.70;100115.41;1745497;81;20200;-78
2021/06/08 01:23:08;;;;;;;;;;;;;;;23.90;47.69;100122.85;1747977;81;20184;-78
2021/06/08 01:25:34;;;;;;;;;;;;;;;23.92;47.72;100123.95;1736129;82;20166;-78
2021/06/08 01:27:59;;;;;;;;;;;;;;;23.91;47.73;100127.23;1731247;82;20905;-78
2021/06/08 01:30:25;;;;;;;;;;;;;;;23.89;47.79;100128.56;1736493;82;20181;-78
2021/06/08 01:32:51;;;;;;;;;;;;;;;24.21;47.15;100128.67;1747595;82;20167;-78
2021/06/08 01:35:18;;;;;;;;;;;;;;;23.90;47.71;100132.42;1747461;82;20181;-78
2021/06/08 01:37:45;;;;;;;;;;;;;;;23.89;47.75;100138.13;1746852;82;20144;-78
2021/06/08 01:40:16;;;;;;;;;;;;;;;23.87;47.80;100143.05;1747430;82;20691;-78
2021/06/08 01:42:42;;;;;;;;;;;;;;;23.84;47.82;100136.70;1747071;82;20139;-78
2021/06/08 01:45:12;;;;;;;;;;;;;;;23.94;47.59;100139.05;1747166;81;20136;-78
2021/06/08 01:47:38;;;;;;;;;;;;;;;23.83;47.78;100141.34;1712455;83;20132;-78
2021/06/08 01:50:05;;;;;;;;;;;;;;;24.08;47.39;100144.14;1731227;83;20168;-78
2021/06/08 01:52:35;;;;;;;;;;;;;;;23.85;47.79;100142.48;1730986;83;20166;-78
2021/06/08 01:55:20;;;;;;;;;;;;;;;24.01;47.52;100135.56;1740547;82;20147;-79
2021/06/08 01:57:54;;;;;;;;;;;;;;;23.90;47.83;100145.28;1742612;82;20131;-77
2021/06/08 02:00:41;;;;;;;;;;;;;;;23.98;47.76;100142.08;1742541;82;20139;-78
2021/06/08 02:03:16;;;;;;;;;;;;;;;23.99;47.72;100140.48;1742860;82;20124;-78
2021/06/08 02:05:50;;;;;;;;;;;;;;;23.95;47.87;100143.43;1743010;82;20163;-78
2021/06/08 02:08:25;;;;;;;;;;;;;;;23.93;47.90;100139.28;1742682;82;20168;-77
2021/06/08 02:10:56;;;;;;;;;;;;;;;23.95;47.89;100135.23;1742794;82;20226;-78
2021/06/08 02:13:35;;;;;;;;;;;;;;;23.98;47.79;100133.88;1736234;82;20147;-78
2021/06/08 02:16:08;;;;;;;;;;;;;;;23.98;47.83;100135.23;1715420;83;20143;-77
2021/06/08 02:18:34;;;;;;;;;;;;;;;23.98;47.86;100135.23;1715326;83;20128;-77
2021/06/08 02:21:01;;;;;;;;;;;;;;;24.17;47.60;100135.77;1715764;83;20189;-77
2021/06/08 02:23:27;;;;;;;;;;;;;;;23.99;47.89;100144.58;1717969;83;20414;-77
2021/06/08 02:25:53;;;;;;;;;;;;;;;23.97;48.09;100148.64;1730653;83;20170;-77
2021/06/08 02:28:20;;;;;;;;;;;;;;;23.94;48.21;100140.41;1730430;83;20234;-77
2021/06/08 02:30:47;;;;;;;;;;;;;;;23.98;48.22;100144.81;1730622;83;20421;-77
2021/06/08 02:33:14;;;;;;;;;;;;;;;23.96;48.34;100139.61;1730634;83;20160;-77
2021/06/08 02:35:39;;;;;;;;;;;;;;;23.96;48.41;100145.63;1712168;83;20201;-77
2021/06/08 02:38:05;;;;;;;;;;;;;;;23.94;48.38;100141.78;1730454;83;20175;-77
2021/06/08 02:40:31;;;;;;;;;;;;;;;23.96;48.35;100146.45;1730485;83;20155;-77
2021/06/08 02:42:59;;;;;;;;;;;;;;;23.97;48.35;100141.80;1729664;83;20205;-78
2021/06/08 02:45:25;;;;;;;;;;;;;;;23.96;48.40;100136.88;1717703;83;20129;-78
2021/06/08 02:47:51;;;;;;;;;;;;;;;23.95;48.39;100131.13;1768254;81;20161;-78
2021/06/08 02:50:17;;;;;;;;;;;;;;;23.92;48.37;100130.80;1767795;81;20168;-77
2021/06/08 02:52:44;;;;;;;;;;;;;;;23.90;48.42;100135.70;1746493;81;20160;-77
2021/06/08 02:55:11;;;;;;;;;;;;;;;23.90;48.51;100137.90;1742633;81;20269;-78
2021/06/08 02:57:37;;;;;;;;;;;;;;;23.97;48.46;100141.80;1738759;82;20521;-78
2021/06/08 03:00:05;;;;;;;;;;;;;;;23.99;48.42;100146.49;1738783;82;20198;-77
2021/06/08 03:02:32;;;;;;;;;;;;;;;24.02;48.40;100144.59;1738719;82;20202;-77
2021/06/08 03:05:03;;;;;;;;;;;;;;;24.04;48.31;100141.91;1767804;81;20175;-77
2021/06/08 03:07:29;;;;;;;;;;;;;;;24.09;48.22;100149.34;1737599;82;20213;-78
2021/06/08 03:09:58;;;;;;;;;;;;;;;24.14;48.23;100142.56;1738050;82;20208;-78
2021/06/08 03:12:27;;;;;;;;;;;;;;;24.18;48.14;100140.16;1739129;82;20198;-77
2021/06/08 03:14:53;;;;;;;;;;;;;;;24.22;48.00;100144.03;1724008;81;20119;-77
2021/06/08 03:17:19;;;;;;;;;;;;;;;24.24;48.11;100143.22;1720827;83;20161;-77
2021/06/08 03:19:46;;;;;;;;;;;;;;;24.30;47.92;100145.78;1707453;83;20178;-77
2021/06/08 03:22:16;;;;;;;;;;;;;;;24.27;47.94;100140.81;1722134;81;20195;-77
2021/06/08 03:24:43;;;;;;;;;;;;;;;24.24;47.97;100144.05;1750019;79;20205;-77
2021/06/08 03:27:09;;;;;;;;;;;;;;;24.23;48.17;100147.88;1738056;82;20186;-78
2021/06/08 03:29:35;;;;;;;;;;;;;;;24.25;48.10;100147.61;1737846;82;20241;-77
2021/06/08 03:32:01;;;;;;;;;;;;;;;24.24;48.15;100148.16;1739065;82;20216;-78
2021/06/08 03:34:28;;;;;;;;;;;;;;;24.29;48.13;100148.20;1717935;82;20213;-78
2021/06/08 03:36:54;;;;;;;;;;;;;;;24.27;48.05;100144.91;1738079;82;20237;-78
2021/06/08 03:39:21;;;;;;;;;;;;;;;24.29;47.99;100145.47;1717545;82;20177;-77
2021/06/08 03:41:48;;;;;;;;;;;;;;;24.27;47.96;100146.28;1739269;81;20175;-78
2021/06/08 03:44:15;;;;;;;;;;;;;;;24.26;47.96;100149.28;1754680;81;20426;-78
2021/06/08 03:46:42;;;;;;;;;;;;;;;24.26;47.94;100152.02;1713826;82;20427;-77
2021/06/08 03:49:08;;;;;;;;;;;;;;;24.24;47.96;100152.26;1691903;82;20167;-78
2021/06/08 03:51:33;;;;;;;;;;;;;;;24.24;47.94;100150.89;1715010;83;20221;-77
2021/06/08 03:53:59;;;;;;;;;;;;;;;24.26;47.95;100155.59;1723570;82;20220;-78
2021/06/08 03:56:26;;;;;;;;;;;;;;;24.26;47.99;100154.22;1736111;82;20458;-79
2021/06/08 03:58:53;;;;;;;;;;;;;;;24.27;48.02;100155.86;1736966;82;20163;-78
2021/06/08 04:01:19;;;;;;;;;;;;;;;24.29;48.08;100155.05;1713966;82;20175;-78
2021/06/08 04:03:47;;;;;;;;;;;;;;;24.34;48.06;100155.65;1741529;82;20170;-78
2021/06/08 04:06:15;;;;;;;;;;;;;;;24.43;48.04;100153.32;1741509;82;20191;-78
2021/06/08 04:08:41;;;;;;;;;;;;;;;24.50;48.01;100153.95;1739278;82;20167;-78
2021/06/08 04:11:12;;;;;;;;;;;;;;;24.57;48.02;100154.56;1761871;81;20182;-78
2021/06/08 04:13:39;;;;;;;;;;;;;;;24.69;47.74;100161.27;1763211;81;20211;-78
2021/06/08 04:16:05;;;;;;;;;;;;;;;24.77;47.43;100152.59;1774089;80;20244;-78
2021/06/08 04:18:31;;;;;;;;;;;;;;;24.82;47.29;100154.55;1758266;80;20182;-78
2021/06/08 04:20:59;;;;;;;;;;;;;;;24.89;47.41;100151.89;1769897;80;20200;-78
2021/06/08 04:23:26;;;;;;;;;;;;;;;24.95;47.32;100150.02;1755154;79;20134;-77
2021/06/08 04:25:52;;;;;;;;;;;;;;;25.04;46.99;100155.30;1756008;80;20201;-77
2021/06/08 04:28:20;;;;;;;;;;;;;;;25.08;46.84;100157.84;1754376;80;20178;-77
2021/06/08 04:30:47;;;;;;;;;;;;;;;25.11;46.71;100153.73;1768176;80;20210;-77
2021/06/08 04:33:13;;;;;;;;;;;;;;;25.08;46.80;100156.47;1758963;80;20258;-76
2021/06/08 04:35:39;;;;;;;;;;;;;;;25.09;46.89;100160.03;1772300;80;20176;-76
2021/06/08 04:38:06;;;;;;;;;;;;;;;25.09;46.99;100155.37;1774205;80;20227;-76
2021/06/08 04:40:32;;;;;;;;;;;;;;;25.13;47.00;100155.68;1763339;80;20220;-77
2021/06/08 04:42:58;;;;;;;;;;;;;;;25.15;46.90;100157.05;1715041;80;20165;-77
2021/06/08 04:45:24;;;;;;;;;;;;;;;25.19;46.95;100166.41;1758918;80;20178;-78
2021/06/08 04:47:50;;;;;;;;;;;;;;;25.20;46.77;100174.09;1757078;80;20229;-77
2021/06/08 04:50:15;;;;;;;;;;;;;;;25.20;46.82;100168.60;1757198;80;20189;-76
2021/06/08 04:52:42;;;;;;;;;;;;;;;25.30;46.73;100164.59;1763748;80;20511;-76
2021/06/08 04:55:09;;;;;;;;;;;;;;;25.37;46.67;100165.73;1752624;80;20205;-76
2021/06/08 04:57:35;;;;;;;;;;;;;;;25.41;46.43;100170.97;1756619;80;20234;-77
2021/06/08 05:00:06;;;;;;;;;;;;;;;25.46;46.36;100165.52;1760211;80;20224;-77
2021/06/08 05:02:38;;;;;;;;;;;;;;;25.49;46.19;100163.08;1751947;80;20210;-78
2021/06/08 05:05:09;;;;;;;;;;;;;;;25.59;46.30;100161.50;1751605;80;20499;-76
2021/06/08 05:07:37;;;;;;;;;;;;;;;25.66;46.23;100167.04;1749530;80;20244;-77
2021/06/08 05:10:04;;;;;;;;;;;;;;;25.78;46.11;100158.06;1761340;80;20176;-76
2021/06/08 05:12:30;;;;;;;;;;;;;;;25.87;45.80;100167.99;1755138;80;20341;-76
2021/06/08 05:14:56;;;;;;;;;;;;;;;25.92;45.81;100161.70;1757498;80;20168;-77
2021/06/08 05:17:24;;;;;;;;;;;;;;;25.97;45.76;100171.33;1734488;80;20366;-77
2021/06/08 05:19:52;;;;;;;;;;;;;;;26.00;45.70;100171.63;1758323;80;20746;-78
2021/06/08 05:22:21;;;;;;;;;;;;;;;26.04;45.63;100177.42;1750367;79;20138;-77
2021/06/08 05:24:52;;;;;;;;;;;;;;;26.10;45.65;100174.14;1729027;80;20174;-80
2021/06/08 05:27:20;;;;;;;;;;;;;;;26.13;45.68;100168.95;1755363;80;20267;-79
2021/06/08 05:29:47;;;;;;;;;;;;;;;26.18;45.53;100168.14;1757906;80;20494;-77
2021/06/08 05:32:13;;;;;;;;;;;;;;;26.20;45.52;100170.06;1754462;80;20260;-77
2021/06/08 05:34:42;;;;;;;;;;;;;;;26.21;45.81;100175.30;1753424;80;20410;-78
2021/06/08 05:37:10;;;;;;;;;;;;;;;26.25;45.80;100172.30;1757263;80;20137;-78
2021/06/08 05:39:37;;;;;;;;;;;;;;;26.31;45.51;100183.57;1757616;80;20165;-78
2021/06/08 05:42:05;;;;;;;;;;;;;;;26.35;45.45;100178.92;1756509;79;20162;-76
2021/06/08 05:44:33;;;;;;;;;;;;;;;26.38;45.27;100179.73;1729180;81;20123;-78
2021/06/08 05:47:00;;;;;;;;;;;;;;;26.37;45.35;100180.84;1742446;79;20137;-77
2021/06/08 05:49:26;;;;;;;;;;;;;;;26.38;45.39;100179.19;1720012;80;20138;-79
2021/06/08 05:51:52;;;;;;;;;;;;;;;26.38;45.26;100178.36;1741579;80;20263;-76
2021/06/08 05:54:17;;;;;;;;;;;;;;;26.37;45.21;100171.23;1746216;79;20136;-78
2021/06/08 05:56:43;;;;;;;;;;;;;;;26.38;45.20;100172.87;1743205;80;20160;-77
2021/06/08 05:59:14;;;;;;;;;;;;;;;26.40;45.15;100170.70;1724266;81;20149;-77
2021/06/08 06:01:37;;;;;;;;;;;;;;;26.42;45.18;100171.23;1719274;82;20203;-77
2021/06/08 06:04:04;;;;;;;;;;;;;;;26.47;45.31;100167.16;1745530;81;20203;-77
2021/06/08 06:06:33;;;;;;;;;;;;;;;26.57;45.26;100171.30;1720143;82;20134;-76
2021/06/08 06:09:02;;;;;;;;;;;;;;;26.69;45.18;100167.77;1689000;82;20155;-77
2021/06/08 06:11:28;;;;;;;;;;;;;;;26.85;44.92;100168.63;1719448;82;20155;-77
2021/06/08 06:14:00;;;;;;;;;;;;;;;27.00;44.74;100167.27;1703891;82;20483;-79
2021/06/08 06:16:23;;;;;;;;;;;;;;;27.17;44.44;100162.08;1719792;82;20480;-77
2021/06/08 06:18:49;;;;;;;;;;;;;;;27.33;44.19;100164.27;1722050;82;20157;-79
2021/06/08 06:21:15;;;;;;;;;;;;;;;27.46;44.01;100166.45;1711416;82;20841;-78
2021/06/08 06:23:41;;;;;;;;;;;;;;;27.60;43.75;100163.39;1744281;81;20160;-78
2021/06/08 06:26:07;;;;;;;;;;;;;;;27.80;43.69;100158.44;1745975;81;20169;-77
2021/06/08 06:28:33;;;;;;;;;;;;;;;27.95;43.36;100161.14;1716182;82;20225;-77
2021/06/08 06:30:59;;;;;;;;;;;;;;;28.11;43.02;100157.76;1699822;81;20175;-78
2021/06/08 06:33:26;;;;;;;;;;;;;;;28.30;42.74;100160.17;1722562;82;20158;-77
2021/06/08 06:35:55;;;;;;;;;;;;;;;28.47;42.54;100160.38;1710035;82;20190;-78
2021/06/08 06:38:21;;;;;;;;;;;;;;;28.66;42.24;100158.63;1721507;82;20532;-78
2021/06/08 06:40:47;;;;;;;;;;;;;;;29.04;41.06;100158.92;1720836;81;20174;-78
2021/06/08 06:43:20;;;;;;;;;;;;;;;29.08;41.16;100156.42;1719607;82;20410;-78
2021/06/08 06:45:46;;;;;;;;;;;;;;;29.24;40.49;100160.67;1722895;80;20179;-78
2021/06/08 06:48:17;;;;;;;;;;;;;;;29.43;40.30;100157.45;1720342;80;20135;-78
2021/06/08 06:50:44;;;;;;;;;;;;;;;29.61;39.84;100151.78;1718513;80;20177;-78
2021/06/08 06:53:10;;;;;;;;;;;;;;;29.83;39.45;100158.99;1698948;82;20168;-78
2021/06/08 06:55:37;;;;;;;;;;;;;;;30.05;39.08;100157.64;1720991;81;20149;-78
2021/06/08 06:58:03;;;;;;;;;;;;;;;30.22;38.74;100158.02;1723825;80;20185;-78
2021/06/08 07:00:29;;;;;;;;;;;;;;;30.41;38.54;100164.94;1723251;80;20159;-78
2021/06/08 07:02:56;;;;;;;;;;;;;;;30.58;38.00;100158.91;1718969;82;20158;-79
2021/06/08 07:05:25;;;;;;;;;;;;;;;30.77;37.99;100165.28;1721951;82;20166;-79
2021/06/08 07:07:51;;;;;;;;;;;;;;;30.95;37.31;100170.53;1717944;80;20202;-79
2021/06/08 07:10:20;;;;;;;;;;;;;;;31.11;36.86;100168.33;1740185;79;20457;-78
2021/06/08 07:12:50;;;;;;;;;;;;;;;31.24;36.74;100165.34;1724027;82;20206;-78
2021/06/08 07:15:16;;;;;;;;;;;;;;;31.34;36.37;100165.23;1721848;81;20560;-77
2021/06/08 07:17:42;;;;;;;;;;;;;;;31.45;36.46;100163.09;1718577;81;20186;-77
2021/06/08 07:20:10;;;;;;;;;;;;;;;31.54;36.42;100165.41;1724313;81;20407;-77
2021/06/08 07:22:37;;;;;;;;;;;;;;;31.65;36.25;100171.00;1721919;81;20179;-78
2021/06/08 07:25:04;;;;;;;;;;;;;;;31.72;35.84;100160.36;1708319;82;20157;-78
2021/06/08 07:27:30;;;;;;;;;;;;;;;31.77;35.71;100162.20;1745787;79;20161;-77
2021/06/08 07:29:56;;;;;;;;;;;;;;;31.87;36.05;100162.59;1717409;81;20195;-77
2021/06/08 07:32:24;;;;;;;;;;;;;;;32.04;35.44;100169.73;1720378;80;20200;-77
2021/06/08 07:35:07;;;;;;;;;;;;;;;32.02;35.71;100163.13;1719250;81;20161;-77
2021/06/08 07:37:33;;;;;;;;;;;;;;;32.06;35.42;100163.30;1719864;81;21191;-77
2021/06/08 07:40:02;;;;;;;;;;;;;;;32.10;35.31;100168.48;1705942;82;20177;-77
2021/06/08 07:42:39;;;;;;;;;;;;;;;32.12;35.31;100166.81;1722952;81;20226;-76
2021/06/08 07:45:13;;;;;;;;;;;;;;;32.15;35.52;100168.95;1722951;81;20106;-76
2021/06/08 07:47:39;;;;;;;;;;;;;;;32.20;35.41;100168.27;1744367;81;20188;-76
2021/06/08 07:50:07;;;;;;;;;;;;;;;32.22;35.17;100161.86;1692686;81;20187;-76
2021/06/08 07:52:33;;;;;;;;;;;;;;;32.25;35.23;100162.64;1723043;82;20506;-76
2021/06/08 07:54:59;;;;;;;;;;;;;;;32.27;35.24;100158.98;1718978;82;20151;-77
2021/06/08 07:57:25;;;;;;;;;;;;;;;32.30;35.40;100156.16;1721177;80;20152;-76
2021/06/08 07:59:51;;;;;;;;;;;;;;;32.33;35.07;100159.11;1726636;81;20178;-77
2021/06/08 08:02:20;;;;;;;;;;;;;;;32.36;35.12;100159.64;1724395;81;20155;-77
2021/06/08 08:04:50;;;;;;;;;;;;;;;32.40;35.35;100157.92;1704219;81;20166;-77
2021/06/08 08:07:20;;;;;;;;;;;;;;;32.45;35.20;100155.03;1718878;80;20192;-77
2021/06/08 08:09:46;;;;;;;;;;;;;;;32.48;34.74;100157.19;1720177;80;20189;-77
2021/06/08 08:12:13;;;;;;;;;;;;;;;32.51;34.51;100162.09;1718507;80;20657;-77
2021/06/08 08:14:40;;;;;;;;;;;;;;;32.47;34.77;100154.95;1722495;81;20210;-77
2021/06/08 08:17:06;;;;;;;;;;;;;;;32.56;34.61;100148.92;1654521;82;20159;-77
2021/06/08 08:19:32;;;;;;;;;;;;;;;32.79;34.14;100148.41;1741347;79;20227;-77
2021/06/08 08:21:58;;;;;;;;;;;;;;;32.83;34.08;100143.84;1741976;81;20206;-78
2021/06/08 08:24:24;;;;;;;;;;;;;;;32.86;33.93;100145.75;1733767;80;20227;-77
2021/06/08 08:26:50;;;;;;;;;;;;;;;32.60;34.10;100147.73;1741271;81;20162;-77
2021/06/08 08:29:16;;;;;;;;;;;;;;;32.53;34.34;100148.19;1741185;79;20194;-76
2021/06/08 08:31:42;;;;;;;;;;;;;;;32.46;34.33;100146.96;1721806;79;20191;-77
2021/06/08 08:34:09;;;;;;;;;;;;;;;32.37;34.17;100146.03;1740059;79;20200;-77
2021/06/08 08:36:38;;;;;;;;;;;;;;;32.25;34.48;100148.78;1719094;80;20609;-77
2021/06/08 08:39:06;;;;;;;;;;;;;;;32.16;34.14;100149.26;1671900;80;20197;-78
2021/06/08 08:42:41;;;;;;;;;;;;;;;31.98;34.15;100147.42;1719329;80;20459;-76
2021/06/08 08:44:37;;;;;;;;;;;;;;;31.81;34.73;100147.44;1700965;80;20233;-78
2021/06/08 08:47:22;;;;;;;;;;;;;;;31.69;34.82;100136.03;1716868;80;20244;-77
2021/06/08 08:49:50;;;;;;;;;;;;;;;31.63;34.45;100138.66;1698412;82;20634;-77
2021/06/08 08:52:19;;;;;;;;;;;;;;;31.60;34.42;100122.65;1717738;80;20188;-76
2021/06/08 08:54:45;;;;;;;;;;;;;;;31.56;34.37;100122.44;1697908;81;20211;-76
2021/06/08 08:57:12;;;;;;;;;;;;;;;31.56;34.62;100124.38;1695990;81;20182;-77
2021/06/08 08:59:43;;;;;;;;;;;;;;;31.54;34.50;100130.23;1702953;80;20165;-76
2021/06/08 09:02:09;;;;;;;;;;;;;;;31.53;34.47;100136.09;1715615;80;20654;-77
2021/06/08 09:04:35;;;;;;;;;;;;;;;31.54;34.33;100126.66;1715463;81;20220;-77
2021/06/08 09:07:03;;;;;;;;;;;;;;;31.55;34.34;100129.67;1718072;81;20119;-76
2021/06/08 09:09:33;;;;;;;;;;;;;;;31.55;34.14;100131.06;1711993;80;20213;-77
2021/06/08 09:12:03;;;;;;;;;;;;;;;31.55;33.83;100123.56;1717331;80;20243;-77
2021/06/08 09:14:27;;;;;;;;;;;;;;;31.54;33.88;100131.63;1716852;81;20107;-76
2021/06/08 09:16:53;;;;;;;;;;;;;;;31.53;34.23;100133.33;1717315;80;20190;-75
2021/06/08 09:19:19;;;;;;;;;;;;;;;31.54;33.56;100134.96;1715905;80;20197;-76
2021/06/08 09:21:47;;;;;;;;;;;;;;;31.58;33.57;100135.42;1739186;79;20207;-76
2021/06/08 09:24:19;;;;;;;;;;;;;;;31.46;33.81;100132.33;1684148;81;20198;-75
2021/06/08 09:26:58;;;;;;;;;;;;;;;31.41;33.68;100124.69;1691872;80;20195;-76
2021/06/08 09:29:34;;;;;;;;;;;;;;;31.35;33.47;100127.30;1717522;81;20593;-77
2021/06/08 09:32:26;;;;;;;;;;;;;;;31.26;33.56;100132.67;1696612;82;20382;-77
2021/06/08 09:34:59;;;;;;;;;;;;;;;31.20;33.73;100130.54;1716479;80;20163;-77
2021/06/08 09:37:37;;;;;;;;;;;;;;;31.06;33.92;100131.07;1714900;81;20140;-77
2021/06/08 09:40:23;;;;;;;;;;;;;;;31.20;33.27;100126.39;1716291;81;20165;-76
2021/06/08 09:43:08;;;;;;;;;;;;;;;30.82;33.85;100129.25;1717978;80;20162;-77
2021/06/08 09:45:43;;;;;;;;;;;;;;;30.77;33.84;100131.28;1717207;82;20183;-77
2021/06/08 09:48:10;;;;;;;;;;;;;;;30.53;34.58;100129.97;1717654;81;20211;-77
2021/06/08 09:50:40;;;;;;;;;;;;;;;30.75;34.28;100130.20;1743186;79;20165;-77
2021/06/08 09:53:27;;;;;;;;;;;;;;;30.44;34.83;100127.61;1740174;79;20161;-77
2021/06/08 09:56:10;;;;;;;;;;;;;;;30.30;35.66;100134.44;1720116;80;20202;-77
2021/06/08 09:58:39;;;;;;;;;;;;;;;30.07;37.27;100130.56;1718378;80;20170;-76
2021/06/08 10:01:13;;;;;;;;;;;;;;;29.85;37.80;100132.48;1706009;82;20206;-78
2021/06/08 10:03:43;;;;;;;;;;;;;;;29.68;37.86;100126.05;1720159;81;20193;-78
2021/06/08 10:06:12;;;;;;;;;;;;;;;29.60;37.73;100128.06;1718199;80;20212;-77
2021/06/08 10:08:57;;;;;;;;;;;;;;;29.45;37.88;100117.98;1683098;82;20488;-76
2021/06/08 10:11:26;;;;;;;;;;;;;;;29.35;38.18;100118.66;1718950;82;20588;-77
2021/06/08 10:13:58;;;;;;;;;;;;;;;29.31;37.90;100109.58;1719471;81;20169;-76
2021/06/08 10:16:26;;;;;;;;;;;;;;;29.46;37.65;100107.21;1718310;81;20158;-76
2021/06/08 10:18:53;;;;;;;;;;;;;;;29.34;37.78;100105.39;1719126;81;20214;-77
2021/06/08 10:21:35;;;;;;;;;;;;;;;29.14;38.35;100099.53;1720481;80;20433;-75
2021/06/08 10:24:11;;;;;;;;;;;;;;;29.11;38.89;100093.77;1716398;80;20603;-75
2021/06/08 10:26:41;;;;;;;;;;;;;;;29.11;38.89;100091.02;1714901;82;20538;-77
2021/06/08 10:29:10;;;;;;;;;;;;;;;29.10;38.67;100087.43;1720810;81;20447;-76
2021/06/08 10:31:41;;;;;;;;;;;;;;;29.10;38.74;100090.75;1717021;81;20580;-76
2021/06/08 10:34:07;;;;;;;;;;;;;;;29.09;38.80;100098.20;1719320;80;20166;-76
2021/06/08 10:36:35;;;;;;;;;;;;;;;29.06;38.78;100107.05;1721099;80;20181;-76
2021/06/08 10:39:03;;;;;;;;;;;;;;;29.01;38.63;100106.53;1718462;80;20204;-76
2021/06/08 10:41:34;;;;;;;;;;;;;;;28.96;38.83;100098.88;1722893;82;20172;-77
2021/06/08 10:44:01;;;;;;;;;;;;;;;28.89;39.11;100100.56;1723569;81;20167;-77
2021/06/08 10:46:29;;;;;;;;;;;;;;;28.85;39.19;100096.73;1718767;82;20217;-77
2021/06/08 10:48:55;;;;;;;;;;;;;;;28.79;39.32;100095.93;1724225;82;20438;-78
2021/06/08 10:51:22;;;;;;;;;;;;;;;28.76;38.98;100110.88;1722322;82;20540;-78
2021/06/08 10:53:51;;;;;;;;;;;;;;;29.09;38.11;100114.75;1723636;82;20192;-76
2021/06/08 10:56:34;;;;;;;;;;;;;;;28.73;38.71;100127.41;1716566;81;20594;-77
2021/06/08 10:59:10;;;;;;;;;;;;;;;28.59;38.03;100125.04;1721224;81;20325;-75
2021/06/08 11:01:41;;;;;;;;;;;;;;;28.89;36.93;100121.77;1707048;82;20194;-76
2021/06/08 11:04:08;;;;;;;;;;;;;;;28.49;36.95;100118.22;1721923;82;20752;-76
2021/06/08 11:06:45;;;;;;;;;;;;;;;28.36;36.99;100109.21;1729387;80;20575;-76
2021/06/08 11:09:14;;;;;;;;;;;;;;;28.28;37.75;100108.66;1758635;80;20202;-76
2021/06/08 11:11:44;;;;;;;;;;;;;;;28.18;39.66;100110.09;1757895;79;20654;-78
2021/06/08 11:14:37;;;;;;;;;;;;;;;28.30;39.56;100089.11;1758785;79;20484;-77
2021/06/08 11:17:16;;;;;;;;;;;;;;;28.32;40.63;100079.44;1758236;79;20574;-77
2021/06/08 11:19:51;;;;;;;;;;;;;;;28.20;41.30;100073.44;1756415;80;20191;-76
2021/06/08 11:22:20;;;;;;;;;;;;;;;28.10;41.85;100069.94;1759759;80;20125;-77
2021/06/08 11:24:51;;;;;;;;;;;;;;;27.71;43.43;100064.59;1757317;79;20229;-78
2021/06/08 11:27:17;;;;;;;;;;;;;;;27.53;43.82;100057.78;1754157;80;20133;-77
2021/06/08 11:29:46;;;;;;;;;;;;;;;27.44;44.69;100056.70;1757567;80;20185;-77
2021/06/08 11:32:34;;;;;;;;;;;;;;;27.38;44.92;100052.30;1750981;80;20153;-76
2021/06/08 11:35:19;;;;;;;;;;;;;;;27.41;45.32;100056.44;1750316;80;20182;-77
2021/06/08 11:37:48;;;;;;;;;;;;;;;27.27;45.84;100052.89;1752144;80;20262;-79
2021/06/08 11:40:38;;;;;;;;;;;;;;;27.27;46.07;100055.64;1756123;79;20424;-79
2021/06/08 11:43:19;;;;;;;;;;;;;;;27.33;46.19;100050.95;1760622;79;20149;-77
2021/06/08 11:45:47;;;;;;;;;;;;;;;27.38;46.42;100052.30;1757751;80;20140;-77
2021/06/08 11:48:36;;;;;;;;;;;;;;;27.44;46.21;100053.14;1758378;80;20160;-78
2021/06/08 11:51:18;;;;;;;;;;;;;;;27.55;46.22;100046.48;1764913;80;20558;-77
2021/06/08 11:53:59;;;;;;;;;;;;;;;27.92;46.19;100039.75;1758704;80;20203;-76
2021/06/08 11:56:46;;;;;;;;;;;;;;;27.97;45.37;100032.83;1755052;79;20185;-78
2021/06/08 11:59:12;;;;;;;;;;;;;;;27.99;44.46;100025.95;1756702;79;20187;-77
2021/06/08 12:01:40;;;;;;;;;;;;;;;28.00;43.32;100032.28;1757784;79;20172;-76
2021/06/08 12:04:06;;;;;;;;;;;;;;;28.01;43.28;100020.15;1762262;80;20214;-76
2021/06/08 12:07:00;;;;;;;;;;;;;;;28.06;43.85;100018.73;1755569;80;20172;-76
2021/06/08 12:09:27;;;;;;;;;;;;;;;27.95;43.47;100019.92;1759271;80;20187;-78
2021/06/08 12:11:53;;;;;;;;;;;;;;;28.14;42.68;100022.83;1757911;79;20131;-77
2021/06/08 12:14:25;;;;;;;;;;;;;;;27.97;42.58;100021.82;1755768;80;20226;-78
2021/06/08 12:16:55;;;;;;;;;;;;;;;28.13;42.18;100019.26;1754623;80;20188;-77
2021/06/08 12:19:33;;;;;;;;;;;;;;;28.22;42.06;100023.05;1755536;80;20213;-77
2021/06/08 12:22:02;;;;;;;;;;;;;;;28.24;41.69;100022.20;1754555;80;20209;-78
2021/06/08 12:24:28;;;;;;;;;;;;;;;28.23;41.62;100020.55;1708280;81;20171;-78
2021/06/08 12:26:59;;;;;;;;;;;;;;;27.99;42.27;100024.57;1720158;81;20244;-78
2021/06/08 12:29:25;;;;;;;;;;;;;;;27.83;42.07;100022.17;1722603;82;20185;-77
2021/06/08 12:31:55;;;;;;;;;;;;;;;27.79;42.24;100014.48;1699224;80;20193;-78
2021/06/08 12:34:23;;;;;;;;;;;;;;;27.78;42.16;100025.22;1717261;82;20151;-78
2021/06/08 12:36:49;;;;;;;;;;;;;;;27.75;42.00;100027.19;1718205;81;20171;-78
2021/06/08 12:39:17;;;;;;;;;;;;;;;27.74;41.37;100025.52;1724860;81;20259;-77
2021/06/08 12:41:45;;;;;;;;;;;;;;;27.73;41.32;100028.00;1722676;81;20176;-78
2021/06/08 12:44:12;;;;;;;;;;;;;;;27.74;41.62;100023.31;1718800;82;20127;-77